Time;durP1;ratioP1;P1;durP2;ratioP2;P2;SDS_P1;SDS_P2;PMS_P1;PMS_P2;Temp;Humidity;BMP_temperature;BMP_pressure;BME280_temperature;BME280_humidity;BME280_pressure;Samples;Min_cycle;Max_cycle;Signal;HPM_P1;HPM_P2
2022/07/02 00:02:25;;;;;;;152.82;138.30;;;16.10;88.30;;;;;;5034669;28;20889;-75
2022/07/02 00:04:58;;;;;;;155.13;140.13;;;16.00;88.50;;;;;;5033405;28;20056;-75
2022/07/02 00:07:27;;;;;;;155.05;139.82;;;16.00;88.70;;;;;;5016619;28;20577;-75
2022/07/02 00:09:56;;;;;;;154.65;139.45;;;16.00;88.90;;;;;;5033344;28;20061;-75
2022/07/02 00:12:24;;;;;;;153.07;138.18;;;15.90;89.10;;;;;;5034504;28;20060;-75
2022/07/02 00:14:53;;;;;;;152.10;137.05;;;15.90;89.60;;;;;;5033140;28;20053;-75
2022/07/02 00:17:20;;;;;;;153.55;138.52;;;15.90;89.60;;;;;;5033049;28;20136;-75
2022/07/02 00:19:47;;;;;;;154.48;139.52;;;15.90;89.80;;;;;;5033139;28;20072;-75
2022/07/02 00:22:16;;;;;;;154.70;139.60;;;15.80;89.90;;;;;;5032641;28;20046;-75
2022/07/02 00:24:43;;;;;;;153.75;138.68;;;15.80;90.00;;;;;;5034281;28;20131;-75
2022/07/02 00:27:13;;;;;;;155.60;140.50;;;15.80;90.10;;;;;;5033523;28;20086;-75
2022/07/02 00:29:49;;;;;;;147.35;133.15;;;15.70;90.10;;;;;;5015688;28;20502;-75
2022/07/02 00:32:16;;;;;;;152.27;137.43;;;15.70;90.20;;;;;;5034486;28;20057;-75
2022/07/02 00:34:45;;;;;;;151.77;137.25;;;15.70;90.30;;;;;;5031402;28;20060;-75
2022/07/02 00:37:13;;;;;;;153.90;138.98;;;15.70;90.40;;;;;;5033857;28;20140;-75
2022/07/02 00:39:41;;;;;;;153.75;138.70;;;15.70;90.50;;;;;;5016168;28;20080;-75
2022/07/02 00:42:10;;;;;;;153.25;138.20;;;15.70;90.60;;;;;;5016098;28;20050;-75
2022/07/02 00:44:40;;;;;;;151.68;136.75;;;15.60;90.60;;;;;;5032526;28;20133;-75
2022/07/02 00:47:09;;;;;;;154.90;140.00;;;15.60;90.80;;;;;;5032246;28;20140;-75
2022/07/02 00:49:37;;;;;;;153.20;138.10;;;15.60;90.80;;;;;;5032794;28;20076;-75
2022/07/02 00:52:06;;;;;;;153.43;138.32;;;15.60;90.80;;;;;;5032757;28;20054;-75
2022/07/02 00:54:35;;;;;;;153.45;138.35;;;15.50;90.90;;;;;;5032083;28;20049;-75
2022/07/02 00:57:02;;;;;;;153.18;138.10;;;15.60;91.00;;;;;;5032416;28;20056;-75
2022/07/02 00:59:30;;;;;;;153.95;138.82;;;15.50;91.00;;;;;;5032274;28;20589;-75
2022/07/02 01:01:59;;;;;;;153.80;138.43;;;15.50;91.10;;;;;;5033269;28;20422;-76
2022/07/02 01:04:29;;;;;;;153.57;138.63;;;15.50;91.10;;;;;;5032997;28;20053;-75
2022/07/02 01:07:01;;;;;;;154.75;139.55;;;15.50;91.20;;;;;;5030748;28;20571;-75
2022/07/02 01:12:16;;;;;;;155.32;140.32;;;15.50;91.20;;;;;;5032112;28;20038;-75
2022/07/02 01:14:44;;;;;;;153.75;138.57;;;15.40;91.20;;;;;;5032579;28;20188;-75
2022/07/02 01:17:12;;;;;;;156.95;142.05;;;15.40;91.30;;;;;;5032321;28;20056;-75
2022/07/02 01:19:40;;;;;;;156.20;140.70;;;15.40;91.40;;;;;;5033683;28;20050;-75
2022/07/02 01:22:16;;;;;;;155.10;140.10;;;15.40;91.50;;;;;;5032534;28;20056;-75
2022/07/02 01:24:45;;;;;;;150.35;136.13;;;15.40;91.60;;;;;;5033477;28;20064;-75
2022/07/02 01:27:12;;;;;;;155.68;140.57;;;15.30;91.70;;;;;;5031475;28;20054;-75
2022/07/02 01:29:39;;;;;;;160.80;144.95;;;15.30;91.70;;;;;;5032331;28;20113;-75
2022/07/02 01:32:07;;;;;;;159.45;144.15;;;15.30;91.80;;;;;;5032303;28;20515;-75
2022/07/02 01:34:37;;;;;;;157.68;142.52;;;15.30;91.90;;;;;;5033313;28;20050;-75
2022/07/02 01:37:05;;;;;;;158.48;142.82;;;15.20;91.90;;;;;;5031574;28;20056;-75
2022/07/02 01:39:33;;;;;;;156.77;141.63;;;15.20;92.00;;;;;;5029980;28;20128;-75
2022/07/02 01:42:00;;;;;;;157.82;142.07;;;15.20;92.10;;;;;;5015496;28;20080;-75
2022/07/02 01:44:27;;;;;;;157.65;142.00;;;15.20;92.10;;;;;;5032248;28;20054;-75
2022/07/02 01:46:54;;;;;;;156.73;141.65;;;15.20;92.20;;;;;;5031804;28;20064;-75
2022/07/02 01:49:21;;;;;;;155.65;140.27;;;15.20;92.20;;;;;;5032041;28;20500;-75
2022/07/02 01:51:48;;;;;;;153.98;138.98;;;15.20;92.20;;;;;;5033150;28;20431;-75
2022/07/02 01:54:15;;;;;;;154.13;139.15;;;15.20;92.20;;;;;;5033165;28;20112;-75
2022/07/02 01:56:43;;;;;;;156.43;140.93;;;15.20;92.30;;;;;;5031800;28;20050;-75
2022/07/02 01:59:10;;;;;;;153.48;138.60;;;15.10;92.20;;;;;;5032919;28;20531;-75
2022/07/02 02:01:37;;;;;;;152.90;137.90;;;15.10;92.20;;;;;;5032509;28;20994;-75
2022/07/02 02:04:04;;;;;;;153.18;138.15;;;15.10;92.30;;;;;;5031031;28;20156;-75
2022/07/02 02:06:31;;;;;;;154.20;139.10;;;15.20;92.30;;;;;;5031229;28;20055;-75
2022/07/02 02:08:58;;;;;;;156.82;141.63;;;15.10;92.30;;;;;;5029685;28;20058;-75
2022/07/02 02:11:25;;;;;;;152.85;138.05;;;15.10;92.30;;;;;;5030919;28;20054;-75
2022/07/02 02:13:54;;;;;;;157.88;142.57;;;15.10;92.40;;;;;;5029789;28;20046;-75
2022/07/02 02:16:21;;;;;;;158.45;142.85;;;15.00;92.50;;;;;;5030870;28;20062;-75
2022/07/02 02:18:48;;;;;;;158.40;142.55;;;15.00;92.50;;;;;;5029185;28;20053;-75
2022/07/02 02:21:16;;;;;;;159.02;143.20;;;15.10;92.60;;;;;;5031417;28;20148;-75
2022/07/02 02:23:43;;;;;;;155.73;140.30;;;15.00;92.70;;;;;;5032641;28;20080;-75
2022/07/02 02:26:10;;;;;;;156.48;140.95;;;15.00;92.70;;;;;;5031291;28;20054;-75
2022/07/02 02:29:09;;;;;;;154.50;139.48;;;15.00;92.80;;;;;;5033366;28;20046;-75
2022/07/02 02:31:37;;;;;;;155.25;139.73;;;15.00;92.90;;;;;;4989985;28;20143;-75
2022/07/02 02:34:04;;;;;;;155.43;140.02;;;14.90;92.90;;;;;;5007331;28;20050;-75
2022/07/02 02:36:31;;;;;;;158.15;142.75;;;14.90;93.00;;;;;;4991468;28;20051;-75
2022/07/02 02:38:58;;;;;;;165.38;149.48;;;14.90;93.10;;;;;;4988789;28;20134;-76
2022/07/02 02:41:25;;;;;;;154.05;139.00;;;14.90;93.10;;;;;;5007414;28;20069;-75
2022/07/02 02:43:52;;;;;;;154.35;139.48;;;14.90;93.10;;;;;;4990470;28;20059;-75
2022/07/02 02:46:19;;;;;;;153.98;139.10;;;14.80;93.30;;;;;;4990905;28;20057;-75
2022/07/02 02:48:47;;;;;;;155.75;140.45;;;14.80;93.30;;;;;;4990597;28;20488;-75
2022/07/02 02:51:15;;;;;;;152.77;137.73;;;14.80;93.40;;;;;;4992580;28;20163;-75
2022/07/02 02:53:42;;;;;;;153.15;138.25;;;14.80;93.50;;;;;;4994495;28;20062;-75
2022/07/02 02:56:09;;;;;;;153.18;138.30;;;14.80;93.50;;;;;;4994075;28;20051;-75
2022/07/02 02:58:36;;;;;;;153.88;138.82;;;14.70;93.50;;;;;;4993375;28;20043;-75
2022/07/02 03:01:04;;;;;;;153.52;138.35;;;14.70;93.60;;;;;;4994027;28;20050;-75
2022/07/02 03:03:31;;;;;;;152.85;137.75;;;14.70;93.60;;;;;;4994119;28;20047;-75
2022/07/02 03:06:00;;;;;;;154.13;138.65;;;14.70;93.70;;;;;;4993986;28;20138;-75
2022/07/02 03:08:27;;;;;;;153.73;138.48;;;14.70;93.70;;;;;;4994789;28;20057;-75
2022/07/02 03:10:54;;;;;;;152.68;136.98;;;14.70;93.70;;;;;;4993808;28;20061;-76
2022/07/02 03:13:21;;;;;;;154.80;139.32;;;14.60;93.80;;;;;;4978744;28;20143;-75
2022/07/02 03:15:48;;;;;;;148.75;133.75;;;14.70;93.80;;;;;;4990673;28;20095;-75
2022/07/02 03:18:14;;;;;;;152.15;136.73;;;14.60;93.80;;;;;;4974394;28;20051;-75
2022/07/02 03:20:41;;;;;;;150.63;135.95;;;14.60;93.80;;;;;;4989941;28;20522;-75
2022/07/02 03:23:10;;;;;;;150.93;135.93;;;14.60;93.90;;;;;;4973890;28;20497;-75
2022/07/02 03:25:36;;;;;;;153.00;137.40;;;14.60;93.90;;;;;;4989904;28;20382;-75
2022/07/02 03:28:03;;;;;;;156.70;140.75;;;14.60;93.90;;;;;;4974828;28;20048;-75
2022/07/02 03:30:30;;;;;;;158.55;142.80;;;14.60;93.90;;;;;;4974905;28;20081;-75
2022/07/02 03:32:57;;;;;;;157.80;142.02;;;14.60;94.00;;;;;;4972341;28;20571;-75
2022/07/02 03:35:24;;;;;;;159.18;143.55;;;14.60;94.00;;;;;;4988662;28;20047;-75
2022/07/02 03:37:51;;;;;;;149.85;135.05;;;14.60;94.00;;;;;;4972369;28;20528;-75
2022/07/02 03:40:20;;;;;;;156.02;140.63;;;14.60;94.10;;;;;;4972425;28;20091;-75
2022/07/02 03:42:46;;;;;;;157.50;142.23;;;14.60;94.00;;;;;;4972358;28;20048;-75
2022/07/02 03:45:13;;;;;;;153.30;138.40;;;14.60;93.90;;;;;;4976795;28;20057;-75
2022/07/02 03:47:40;;;;;;;149.20;134.55;;;14.70;93.90;;;;;;4993151;28;20085;-75
2022/07/02 03:50:08;;;;;;;149.65;134.85;;;14.60;93.90;;;;;;4993795;28;20055;-75
2022/07/02 03:52:36;;;;;;;152.70;137.75;;;14.60;94.00;;;;;;4993477;28;20137;-75
2022/07/02 03:55:04;;;;;;;152.23;137.45;;;14.60;94.00;;;;;;4993299;28;20051;-75
2022/07/02 03:57:32;;;;;;;155.32;140.02;;;14.60;94.10;;;;;;4993198;28;20051;-75
2022/07/02 03:59:59;;;;;;;151.55;136.25;;;14.60;94.20;;;;;;4994548;28;20055;-75
2022/07/02 04:02:26;;;;;;;147.80;133.00;;;14.50;94.20;;;;;;5009474;28;20055;-75
2022/07/02 04:04:53;;;;;;;149.55;134.60;;;14.50;94.20;;;;;;4993348;28;20899;-75
2022/07/02 04:07:20;;;;;;;148.68;133.88;;;14.50;94.30;;;;;;4976400;28;20050;-75
2022/07/02 04:09:47;;;;;;;149.52;134.70;;;14.50;94.40;;;;;;4994509;28;20051;-75
2022/07/02 04:12:14;;;;;;;150.98;135.93;;;14.40;94.40;;;;;;4993487;28;20418;-75
2022/07/02 04:14:42;;;;;;;150.82;136.00;;;14.40;94.50;;;;;;4992997;28;20074;-75
2022/07/02 04:17:09;;;;;;;149.10;134.48;;;14.40;94.60;;;;;;4992640;28;20473;-75
2022/07/02 04:19:35;;;;;;;151.57;136.38;;;14.40;94.60;;;;;;4975637;28;20059;-75
2022/07/02 04:22:02;;;;;;;149.95;135.05;;;14.40;94.70;;;;;;4973582;28;20055;-75
2022/07/02 04:24:30;;;;;;;150.68;135.70;;;14.40;94.80;;;;;;4989826;28;20094;-75
2022/07/02 04:26:56;;;;;;;149.82;134.82;;;14.30;94.80;;;;;;4974518;28;20055;-75
2022/07/02 04:29:24;;;;;;;148.27;133.73;;;14.40;94.90;;;;;;4989306;28;20083;-75
2022/07/02 04:31:52;;;;;;;150.48;135.57;;;14.30;95.00;;;;;;4957578;28;20146;-75
2022/07/02 04:34:19;;;;;;;154.23;139.02;;;14.40;95.10;;;;;;4989361;28;20047;-75
2022/07/02 04:36:46;;;;;;;149.15;134.23;;;14.40;95.20;;;;;;4973172;28;20575;-75
2022/07/02 04:39:13;;;;;;;150.68;135.88;;;14.40;95.30;;;;;;4972989;28;20059;-75
2022/07/02 04:41:40;;;;;;;151.68;136.93;;;14.40;95.30;;;;;;4989235;28;20533;-75
2022/07/02 04:44:08;;;;;;;152.75;137.65;;;14.40;95.40;;;;;;4973231;28;20198;-75
2022/07/02 04:46:35;;;;;;;151.88;136.93;;;14.50;95.50;;;;;;4972664;28;20529;-75
2022/07/02 04:49:03;;;;;;;151.90;136.82;;;14.50;95.50;;;;;;4972899;28;20138;-75
2022/07/02 04:51:30;;;;;;;146.60;132.07;;;14.50;95.60;;;;;;4988771;28;20086;-75
2022/07/02 04:53:57;;;;;;;149.93;135.20;;;14.50;95.60;;;;;;4974708;28;20510;-75
2022/07/02 04:56:27;;;;;;;151.02;135.77;;;14.50;95.60;;;;;;4972805;28;20054;-75
2022/07/02 04:58:54;;;;;;;150.07;135.38;;;14.60;95.60;;;;;;4973907;28;20134;-74
2022/07/02 05:01:23;;;;;;;148.52;133.85;;;14.60;95.70;;;;;;4972462;28;20047;-74
2022/07/02 05:03:50;;;;;;;148.82;134.10;;;14.60;95.70;;;;;;4974641;28;20090;-75
2022/07/02 05:06:19;;;;;;;154.50;139.00;;;14.60;95.70;;;;;;4972707;28;20066;-74
2022/07/02 05:08:46;;;;;;;150.55;135.52;;;14.60;95.80;;;;;;4987815;28;20055;-74
2022/07/02 05:11:13;;;;;;;151.88;136.68;;;14.70;95.80;;;;;;4974130;28;20133;-74
2022/07/02 05:13:40;;;;;;;153.55;138.45;;;14.70;95.80;;;;;;4988553;28;20147;-74
2022/07/02 05:16:07;;;;;;;152.13;136.93;;;14.70;95.80;;;;;;4972801;28;20055;-74
2022/07/02 05:18:34;;;;;;;150.20;135.18;;;14.70;95.90;;;;;;4973921;28;20059;-74
2022/07/02 05:21:01;;;;;;;151.23;136.15;;;14.70;95.80;;;;;;4972937;28;20571;-74
2022/07/02 05:23:29;;;;;;;151.48;136.48;;;14.80;95.90;;;;;;4971012;28;20083;-74
2022/07/02 05:25:56;;;;;;;149.90;135.10;;;14.80;95.90;;;;;;4987282;28;20143;-74
2022/07/02 05:28:24;;;;;;;152.35;137.20;;;14.80;95.90;;;;;;4970002;28;20050;-75
2022/07/02 05:30:51;;;;;;;151.35;135.93;;;14.80;95.90;;;;;;4954820;28;20043;-75
2022/07/02 05:33:18;;;;;;;146.45;132.30;;;14.90;95.90;;;;;;4974866;28;20078;-74
2022/07/02 05:35:46;;;;;;;149.25;134.60;;;14.90;95.90;;;;;;4991818;28;20142;-75
2022/07/02 05:38:13;;;;;;;149.18;134.48;;;14.90;96.00;;;;;;5006122;28;20513;-75
2022/07/02 05:40:42;;;;;;;149.77;134.90;;;15.00;96.00;;;;;;4987085;28;20133;-75
2022/07/02 05:43:09;;;;;;;148.82;134.23;;;15.00;95.90;;;;;;4989724;28;20137;-75
2022/07/02 05:45:36;;;;;;;151.98;136.93;;;15.10;95.90;;;;;;5005528;28;20055;-75
2022/07/02 05:48:03;;;;;;;149.32;134.90;;;15.10;95.80;;;;;;4989576;28;20154;-77
2022/07/02 05:50:30;;;;;;;148.35;133.82;;;15.20;95.80;;;;;;4990512;28;20043;-77
2022/07/02 05:52:57;;;;;;;150.77;136.05;;;15.20;95.90;;;;;;4990890;28;20043;-77
2022/07/02 05:55:24;;;;;;;146.73;132.43;;;15.20;95.80;;;;;;4990521;28;20043;-77
2022/07/02 05:57:52;;;;;;;146.50;132.32;;;15.30;95.60;;;;;;4991221;28;20043;-80
2022/07/02 06:00:19;;;;;;;149.43;134.48;;;15.40;95.40;;;;;;5003236;28;20073;-79
2022/07/02 06:02:46;;;;;;;151.20;136.00;;;15.40;95.40;;;;;;4990597;28;20137;-77
2022/07/02 06:07:58;;;;;;;149.90;135.10;;;15.50;95.20;;;;;;5002947;28;20057;-78
2022/07/02 06:10:26;;;;;;;152.43;137.93;;;15.60;95.10;;;;;;4989744;28;20051;-78
2022/07/02 06:12:54;;;;;;;150.80;136.30;;;15.60;94.90;;;;;;4973051;28;20051;-79
2022/07/02 06:15:21;;;;;;;153.00;137.70;;;15.70;95.00;;;;;;4989474;28;20494;-79
2022/07/02 06:17:52;;;;;;;151.30;136.98;;;15.80;94.60;;;;;;4989611;28;20106;-79
2022/07/02 06:20:19;;;;;;;153.02;138.50;;;15.80;94.50;;;;;;4985693;28;20055;-78
2022/07/02 06:22:46;;;;;;;152.13;137.70;;;15.90;94.20;;;;;;4988919;28;20078;-78
2022/07/02 06:25:12;;;;;;;148.27;133.65;;;15.90;94.20;;;;;;4989650;28;20065;-79
2022/07/02 06:27:39;;;;;;;147.23;132.85;;;15.90;94.00;;;;;;4993461;28;20047;-79
2022/07/02 06:30:09;;;;;;;148.27;133.85;;;16.00;93.80;;;;;;4993781;28;20062;-78
2022/07/02 06:32:37;;;;;;;150.20;135.75;;;16.10;93.80;;;;;;4976425;28;20054;-79
2022/07/02 06:35:04;;;;;;;150.25;135.95;;;16.00;93.90;;;;;;4993755;28;20057;-80
2022/07/02 06:37:31;;;;;;;149.55;135.15;;;16.10;93.90;;;;;;4977515;28;20138;-80
2022/07/02 06:39:58;;;;;;;150.07;135.60;;;16.20;93.80;;;;;;4993433;28;20057;-85
2022/07/02 06:42:29;;;;;;;152.77;138.30;;;16.20;93.60;;;;;;4993620;28;20078;-83
2022/07/02 06:44:58;;;;;;;148.63;134.02;;;16.30;93.60;;;;;;4993306;28;20075;-81
2022/07/02 06:47:28;;;;;;;145.73;131.40;;;16.40;93.10;;;;;;4993987;28;20057;-89
2022/07/02 06:49:56;;;;;;;146.55;132.23;;;16.50;92.90;;;;;;4979351;28;20057;-78
2022/07/02 06:52:29;;;;;;;147.15;132.55;;;16.50;92.50;;;;;;5012327;28;20125;-87
2022/07/02 06:54:57;;;;;;;150.98;136.38;;;16.60;92.20;;;;;;4995475;28;20094;-77
2022/07/02 06:57:24;;;;;;;149.90;135.38;;;16.60;92.30;;;;;;4994522;28;20080;-80
2022/07/02 06:59:55;;;;;;;148.57;133.95;;;16.60;92.40;;;;;;5012402;28;20054;-93
2022/07/02 07:02:22;;;;;;;149.38;134.75;;;16.70;92.00;;;;;;4979437;28;20137;-84
2022/07/02 07:04:51;;;;;;;148.88;134.45;;;16.70;91.60;;;;;;4979191;28;20125;-86
2022/07/02 07:07:19;;;;;;;154.30;139.60;;;16.80;90.90;;;;;;5009320;28;20097;-86
2022/07/02 07:09:46;;;;;;;150.70;135.82;;;16.80;90.60;;;;;;4994656;28;20517;-82
2022/07/02 07:12:13;;;;;;;147.68;133.57;;;16.90;90.60;;;;;;4996017;28;20802;-86
2022/07/02 07:14:41;;;;;;;145.45;131.30;;;17.00;89.40;;;;;;4994683;28;20038;-88
2022/07/02 07:17:12;;;;;;;145.85;131.85;;;17.00;89.90;;;;;;4995178;28;20051;-89
2022/07/02 07:19:38;;;;;;;149.00;134.48;;;17.10;89.70;;;;;;4995528;28;20059;-80
2022/07/02 07:22:08;;;;;;;147.75;133.35;;;17.10;89.30;;;;;;5011931;28;20047;-81
2022/07/02 07:24:36;;;;;;;147.25;133.15;;;17.20;88.50;;;;;;4995151;28;20050;-85
2022/07/02 07:27:03;;;;;;;149.05;134.75;;;17.20;87.50;;;;;;4979620;28;20058;-85
2022/07/02 07:29:35;;;;;;;148.45;134.07;;;17.20;87.90;;;;;;4994925;28;20113;-84
2022/07/02 07:32:02;;;;;;;149.35;134.90;;;17.30;87.60;;;;;;4996302;28;20062;-88
2022/07/02 07:34:29;;;;;;;150.45;135.93;;;17.40;86.00;;;;;;4997216;28;20047;-86
2022/07/02 07:36:58;;;;;;;152.07;137.40;;;17.40;85.90;;;;;;4994485;28;20174;-83
2022/07/02 07:39:26;;;;;;;147.18;133.07;;;17.50;87.30;;;;;;5011042;28;20047;-87
2022/07/02 07:41:53;;;;;;;146.10;132.20;;;17.50;88.10;;;;;;4981215;28;20066;-78
2022/07/02 07:44:20;;;;;;;145.50;132.05;;;17.60;86.80;;;;;;4975005;28;20110;-82
2022/07/02 07:46:50;;;;;;;146.13;132.60;;;17.60;86.90;;;;;;4975947;28;20051;-89
2022/07/02 07:49:17;;;;;;;143.30;129.60;;;17.70;86.50;;;;;;4959867;28;20150;-83
2022/07/02 07:51:44;;;;;;;151.50;137.05;;;17.70;84.60;;;;;;4979833;28;20617;-82
2022/07/02 07:54:11;;;;;;;145.20;131.60;;;17.80;84.50;;;;;;4993302;28;20141;-81
2022/07/02 07:56:43;;;;;;;145.60;132.13;;;17.80;83.80;;;;;;4993181;28;20592;-83
2022/07/02 07:59:10;;;;;;;146.63;132.93;;;17.80;84.00;;;;;;4994266;28;20054;-85
2022/07/02 08:01:37;;;;;;;149.23;135.43;;;17.90;84.40;;;;;;4994847;28;20059;-90
2022/07/02 08:04:06;;;;;;;143.85;130.23;;;17.90;85.70;;;;;;4994367;28;20058;-89
2022/07/02 08:06:33;;;;;;;148.18;134.27;;;17.90;85.80;;;;;;4994915;28;20853;-86
2022/07/02 08:09:01;;;;;;;147.75;134.25;;;17.90;85.30;;;;;;4995861;28;20094;-91
2022/07/02 08:11:39;;;;;;;149.27;135.70;;;18.00;84.60;;;;;;4995646;28;20141;-90
2022/07/02 08:14:08;;;;;;;149.25;135.32;;;18.10;84.30;;;;;;4976079;28;20466;-87
2022/07/02 08:16:38;;;;;;;150.35;136.55;;;18.10;85.30;;;;;;4993102;28;20075;-86
2022/07/02 08:19:05;;;;;;;152.63;138.73;;;18.10;84.60;;;;;;4977395;28;20102;-85
2022/07/02 08:21:32;;;;;;;150.13;136.73;;;18.20;84.10;;;;;;4994933;28;20137;-86
2022/07/02 08:23:59;;;;;;;152.68;138.80;;;18.30;84.00;;;;;;4989192;28;20079;-85
2022/07/02 08:26:26;;;;;;;149.23;135.52;;;18.30;82.90;;;;;;4975675;28;20061;-87
2022/07/02 08:28:57;;;;;;;148.05;134.75;;;18.40;81.60;;;;;;4959933;28;20055;-85
2022/07/02 08:31:24;;;;;;;150.02;136.55;;;18.40;80.60;;;;;;4975730;28;20055;-88
2022/07/02 08:33:55;;;;;;;151.23;137.57;;;18.40;81.70;;;;;;4981315;28;20057;-88
2022/07/02 08:36:22;;;;;;;151.45;137.95;;;18.50;80.10;;;;;;4995389;28;20093;-85
2022/07/02 08:38:49;;;;;;;151.70;138.10;;;18.50;79.90;;;;;;4992948;28;20523;-83
2022/07/02 08:41:17;;;;;;;149.18;135.68;;;18.60;79.10;;;;;;4977426;28;20098;-85
2022/07/02 08:43:49;;;;;;;149.63;135.93;;;18.70;78.40;;;;;;4993698;28;20075;-86
2022/07/02 08:46:18;;;;;;;147.93;134.15;;;18.70;78.00;;;;;;4993730;28;20050;-85
2022/07/02 08:48:46;;;;;;;150.38;136.77;;;18.70;78.70;;;;;;4975090;28;20077;-85
2022/07/02 08:51:19;;;;;;;150.45;137.18;;;18.70;77.30;;;;;;5010248;28;20152;-92
2022/07/02 08:53:49;;;;;;;149.55;136.05;;;18.80;77.30;;;;;;4993224;28;20043;-83
2022/07/02 08:56:18;;;;;;;150.50;137.23;;;18.80;77.80;;;;;;4977141;28;20055;-84
2022/07/02 08:58:45;;;;;;;148.18;134.80;;;18.90;78.30;;;;;;4993178;28;20125;-84
2022/07/02 09:01:13;;;;;;;148.93;135.68;;;18.90;76.90;;;;;;4976899;28;20047;-83
2022/07/02 09:03:44;;;;;;;149.93;136.55;;;19.00;76.30;;;;;;4992950;28;20086;-86
2022/07/02 09:06:11;;;;;;;148.85;135.65;;;19.00;77.00;;;;;;4993690;28;20497;-83
2022/07/02 09:08:39;;;;;;;151.90;138.82;;;19.00;77.10;;;;;;4992837;28;20051;-84
2022/07/02 09:11:08;;;;;;;151.43;138.02;;;19.10;76.40;;;;;;4993642;28;20087;-83
2022/07/02 09:13:35;;;;;;;151.00;137.88;;;19.20;75.50;;;;;;4993160;28;20078;-83
2022/07/02 09:16:02;;;;;;;154.20;140.80;;;19.20;75.10;;;;;;4981583;28;20059;-80
2022/07/02 09:18:29;;;;;;;156.50;143.05;;;19.30;74.70;;;;;;4992575;28;20051;-78
2022/07/02 09:20:57;;;;;;;151.00;137.90;;;19.30;74.60;;;;;;4976347;28;20049;-79
2022/07/02 09:23:24;;;;;;;150.73;137.43;;;19.40;75.40;;;;;;4961643;28;20059;-80
2022/07/02 09:25:52;;;;;;;155.43;141.98;;;19.40;76.60;;;;;;4957650;28;20155;-80
2022/07/02 09:28:19;;;;;;;154.57;141.15;;;19.50;75.20;;;;;;4972961;28;20054;-80
2022/07/02 09:30:47;;;;;;;153.60;140.38;;;19.60;73.30;;;;;;4973177;28;20502;-80
2022/07/02 09:33:36;;;;;;;155.57;141.98;;;19.60;72.80;;;;;;4987045;28;20154;-81
2022/07/02 09:36:11;;;;;;;157.45;143.85;;;19.70;72.20;;;;;;4976562;28;20054;-81
2022/07/02 09:38:42;;;;;;;151.98;138.77;;;19.80;72.00;;;;;;4976492;28;20094;-80
2022/07/02 09:41:12;;;;;;;158.77;145.05;;;19.80;71.70;;;;;;4992498;28;20129;-81
2022/07/02 09:43:40;;;;;;;159.25;145.65;;;19.90;72.30;;;;;;5008918;28;20051;-81
2022/07/02 09:46:16;;;;;;;157.85;144.52;;;19.90;70.20;;;;;;4992389;28;20137;-81
2022/07/02 09:48:43;;;;;;;157.05;143.57;;;20.00;69.60;;;;;;4992425;28;20793;-80
2022/07/02 09:51:12;;;;;;;157.38;143.82;;;20.10;68.00;;;;;;4992006;28;20142;-80
2022/07/02 09:53:48;;;;;;;153.02;140.02;;;20.20;69.10;;;;;;4992319;28;20694;-81
2022/07/02 09:56:15;;;;;;;159.30;145.65;;;20.20;69.20;;;;;;4991086;28;20051;-83
2022/07/02 09:58:42;;;;;;;155.07;141.90;;;20.20;70.20;;;;;;4991763;28;20046;-83
2022/07/02 10:01:09;;;;;;;155.75;142.35;;;20.30;68.20;;;;;;5010184;28;20106;-82
2022/07/02 10:03:47;;;;;;;161.57;147.88;;;20.30;68.30;;;;;;4979251;28;20186;-83
2022/07/02 10:06:15;;;;;;;156.43;142.90;;;20.30;67.90;;;;;;4995197;28;20047;-81
2022/07/02 10:08:43;;;;;;;166.43;152.48;;;20.30;69.70;;;;;;5011812;28;20065;-81
2022/07/02 10:11:10;;;;;;;166.30;152.60;;;20.30;69.80;;;;;;4995448;28;20101;-82
2022/07/02 10:13:37;;;;;;;169.90;155.60;;;20.30;68.00;;;;;;4995341;28;20504;-81
2022/07/02 10:16:08;;;;;;;156.07;142.55;;;20.40;66.30;;;;;;4995705;28;20121;-81
2022/07/02 10:18:36;;;;;;;157.82;144.40;;;20.40;66.60;;;;;;4995282;28;20133;-81
2022/07/02 10:21:04;;;;;;;161.95;148.18;;;20.50;65.60;;;;;;5011807;28;20583;-80
2022/07/02 10:23:34;;;;;;;164.30;150.82;;;20.50;64.60;;;;;;4995575;28;20146;-82
2022/07/02 10:26:01;;;;;;;157.65;144.48;;;20.50;64.40;;;;;;5011816;28;20062;-81
2022/07/02 10:28:28;;;;;;;167.23;153.52;;;20.50;66.60;;;;;;5008660;28;20055;-81
2022/07/02 10:30:57;;;;;;;162.50;148.85;;;20.50;67.40;;;;;;4959025;28;20048;-82
2022/07/02 10:33:32;;;;;;;158.27;145.05;;;20.60;67.10;;;;;;4975343;28;20514;-81
2022/07/02 10:36:00;;;;;;;169.60;155.70;;;20.60;66.40;;;;;;4975290;28;20573;-81
2022/07/02 10:38:33;;;;;;;168.50;154.60;;;20.70;64.90;;;;;;4975866;28;20051;-81
2022/07/02 10:41:00;;;;;;;163.70;150.10;;;20.80;63.50;;;;;;4974830;28;20057;-82
2022/07/02 10:43:29;;;;;;;163.13;149.68;;;20.80;63.10;;;;;;4959222;28;20142;-82
2022/07/02 10:46:06;;;;;;;166.60;152.73;;;20.90;64.30;;;;;;4958987;28;20528;-81
2022/07/02 10:48:35;;;;;;;169.13;155.43;;;20.90;64.10;;;;;;4958793;28;20052;-84
2022/07/02 10:51:04;;;;;;;166.18;152.70;;;21.00;64.20;;;;;;4959258;28;20055;-83
2022/07/02 10:53:34;;;;;;;158.43;145.23;;;21.10;63.90;;;;;;4958926;28;20047;-83
2022/07/02 10:56:03;;;;;;;166.95;153.30;;;21.20;63.80;;;;;;4966814;28;20061;-82
2022/07/02 10:58:34;;;;;;;169.07;155.40;;;21.20;64.60;;;;;;4994038;28;20053;-82
2022/07/02 11:01:12;;;;;;;164.95;151.38;;;21.20;64.20;;;;;;4994596;28;20051;-82
2022/07/02 11:03:39;;;;;;;161.18;147.85;;;21.30;64.00;;;;;;5009052;28;20051;-82
2022/07/02 11:06:08;;;;;;;163.85;150.48;;;21.30;64.20;;;;;;4994226;28;20051;-82
2022/07/02 11:08:51;;;;;;;166.15;152.55;;;21.40;64.00;;;;;;4994490;28;20142;-82
2022/07/02 11:11:21;;;;;;;167.05;153.25;;;21.40;65.00;;;;;;4994223;28;20054;-82
2022/07/02 11:13:50;;;;;;;172.10;158.20;;;21.50;63.80;;;;;;4993706;28;20058;-81
2022/07/02 11:16:23;;;;;;;162.93;149.27;;;21.60;64.60;;;;;;5010624;28;20059;-81
2022/07/02 11:18:52;;;;;;;169.38;155.70;;;21.70;64.50;;;;;;5010426;28;20055;-82
2022/07/02 11:21:20;;;;;;;168.73;154.98;;;21.70;64.50;;;;;;4977922;28;20146;-83
2022/07/02 11:23:49;;;;;;;166.75;153.30;;;21.80;64.80;;;;;;4995132;28;20445;-79
2022/07/02 11:26:20;;;;;;;162.68;149.35;;;21.80;63.90;;;;;;5010818;28;20526;-79
2022/07/02 11:28:47;;;;;;;163.52;150.15;;;21.90;62.80;;;;;;4978111;28;20137;-79
2022/07/02 11:31:15;;;;;;;175.18;161.35;;;21.90;62.80;;;;;;5011482;28;20055;-86
2022/07/02 11:33:46;;;;;;;173.88;160.15;;;21.90;63.00;;;;;;4995229;28;20149;-85
2022/07/02 11:36:14;;;;;;;172.77;159.20;;;22.00;64.10;;;;;;4969412;28;20135;-86
2022/07/02 11:38:43;;;;;;;171.23;157.85;;;22.10;63.20;;;;;;4958711;28;20053;-84
2022/07/02 11:41:23;;;;;;;172.25;158.73;;;22.10;63.60;;;;;;4975085;28;20050;-85
2022/07/02 11:43:53;;;;;;;177.10;163.27;;;22.20;62.40;;;;;;4960234;28;20062;-79
2022/07/02 11:46:21;;;;;;;173.52;159.82;;;22.30;62.50;;;;;;4994280;28;20050;-79
2022/07/02 11:48:49;;;;;;;168.55;155.27;;;22.30;62.60;;;;;;4995435;28;20065;-80
2022/07/02 11:51:19;;;;;;;170.85;157.45;;;22.30;62.70;;;;;;4993859;28;20138;-80
2022/07/02 11:53:56;;;;;;;172.98;159.55;;;22.30;62.20;;;;;;5010585;28;20106;-79
2022/07/02 11:56:24;;;;;;;167.48;154.07;;;22.40;63.00;;;;;;4993807;28;20059;-79
2022/07/02 11:58:52;;;;;;;163.95;150.65;;;22.40;62.10;;;;;;4993287;28;20058;-81
2022/07/02 12:01:20;;;;;;;171.45;157.85;;;22.40;60.50;;;;;;4993599;28;20057;-82
2022/07/02 12:03:48;;;;;;;164.77;151.70;;;22.40;60.40;;;;;;4993052;28;20047;-81
2022/07/02 12:06:16;;;;;;;165.60;152.55;;;22.40;60.90;;;;;;4976953;28;20047;-81
2022/07/02 12:08:43;;;;;;;168.50;155.32;;;22.40;60.40;;;;;;4991902;28;20137;-85
2022/07/02 12:11:15;;;;;;;166.40;153.32;;;22.40;59.40;;;;;;4993400;28;20054;-83
2022/07/02 12:13:44;;;;;;;162.48;149.65;;;22.40;59.80;;;;;;4994909;28;20134;-89
2022/07/02 12:16:12;;;;;;;163.35;150.27;;;22.40;60.00;;;;;;5009926;28;20610;-80
2022/07/02 12:18:40;;;;;;;167.90;154.63;;;22.40;60.30;;;;;;4977206;28;20133;-81
2022/07/02 12:21:14;;;;;;;166.50;153.43;;;22.30;60.70;;;;;;4977401;28;20051;-85